DEPIC EDDB-EDBM
Flight info
| Callsign | DEPIC |
|---|---|
| Flight time | 0h 33m |
| Altitude | 2000 |
| Route | 522413N0133042E 522554N0132512E DCT 520333N0115709E 520343N0113924E DCT 520338N0113556E |
| Aircraft | BE36/L-BDFGLORY/S |
Departure
| Time | 2026-05-08 11:51 |
|---|---|
| Airport | Berlin Brandenburg Airport (EDDB) |
Arrival
| Time | 2026-05-08 12:25 |
|---|---|
| Airport | Magdeburg City Airfield (EDBM) |
| Time | Latitude | Longitude | Altitude | Speed | Heading |
|---|---|---|---|---|---|
| 2026-05-08 11:28 | 52.37160 | 13.52034 | 149 ft | 0 kts | 121° |
| 2026-05-08 11:43 | 52.37156 | 13.52043 | 176 ft | 4 kts | 140° |
| 2026-05-08 11:43 | 52.37154 | 13.52111 | 149 ft | 10 kts | 64° |
| 2026-05-08 11:44 | 52.37198 | 13.52145 | 149 ft | 7 kts | 322° |
| 2026-05-08 11:44 | 52.37229 | 13.52110 | 149 ft | 5 kts | 327° |
| 2026-05-08 11:44 | 52.37259 | 13.52072 | 149 ft | 6 kts | 306° |
| 2026-05-08 11:44 | 52.37266 | 13.51996 | 149 ft | 8 kts | 251° |
| 2026-05-08 11:45 | 52.37244 | 13.51903 | 149 ft | 10 kts | 249° |
| 2026-05-08 11:45 | 52.37218 | 13.51794 | 149 ft | 11 kts | 247° |
| 2026-05-08 11:45 | 52.37189 | 13.51673 | 149 ft | 12 kts | 248° |
| 2026-05-08 11:45 | 52.37158 | 13.51542 | 149 ft | 13 kts | 248° |
| 2026-05-08 11:46 | 52.37124 | 13.51399 | 149 ft | 14 kts | 249° |
| 2026-05-08 11:46 | 52.37088 | 13.51250 | 149 ft | 14 kts | 251° |
| 2026-05-08 11:46 | 52.37052 | 13.51096 | 149 ft | 15 kts | 249° |
| 2026-05-08 11:46 | 52.37015 | 13.50938 | 149 ft | 15 kts | 250° |
| 2026-05-08 11:47 | 52.36976 | 13.50775 | 149 ft | 16 kts | 248° |
| 2026-05-08 11:47 | 52.36936 | 13.50607 | 149 ft | 16 kts | 249° |
| 2026-05-08 11:47 | 52.36896 | 13.50435 | 149 ft | 16 kts | 249° |
| 2026-05-08 11:47 | 52.36854 | 13.50262 | 149 ft | 17 kts | 249° |
| 2026-05-08 11:48 | 52.36862 | 13.50125 | 149 ft | 9 kts | 338° |
| 2026-05-08 11:48 | 52.36927 | 13.50092 | 149 ft | 10 kts | 342° |
| 2026-05-08 11:48 | 52.36996 | 13.50084 | 149 ft | 10 kts | 27° |
| 2026-05-08 11:48 | 52.37051 | 13.50157 | 149 ft | 10 kts | 40° |
| 2026-05-08 11:49 | 52.37116 | 13.50243 | 149 ft | 15 kts | 41° |
| 2026-05-08 11:49 | 52.37197 | 13.50382 | 149 ft | 19 kts | 55° |
| 2026-05-08 11:49 | 52.37278 | 13.50647 | 149 ft | 44 kts | 69° |
| 2026-05-08 11:49 | 52.37445 | 13.51350 | 150 ft | 86 kts | 68° |
| 2026-05-08 11:50 | 52.37688 | 13.52340 | 220 ft | 100 kts | 67° |
| 2026-05-08 11:50 | 52.37985 | 13.53433 | 296 ft | 109 kts | 56° |
| 2026-05-08 11:50 | 52.38660 | 13.53866 | 379 ft | 116 kts | 346° |
| 2026-05-08 11:50 | 52.39308 | 13.53110 | 475 ft | 114 kts | 322° |
| 2026-05-08 11:51 | 52.39786 | 13.52084 | 570 ft | 112 kts | 312° |
| 2026-05-08 11:51 | 52.40458 | 13.51651 | 666 ft | 106 kts | 360° |
| 2026-05-08 11:51 | 52.41161 | 13.51895 | 763 ft | 104 kts | 24° |
| 2026-05-08 11:51 | 52.41852 | 13.51901 | 860 ft | 106 kts | 324° |
| 2026-05-08 11:52 | 52.42142 | 13.50818 | 964 ft | 108 kts | 284° |
| 2026-05-08 11:52 | 52.42305 | 13.49622 | 1074 ft | 108 kts | 274° |
| 2026-05-08 11:52 | 52.42351 | 13.48391 | 1181 ft | 108 kts | 281° |
| 2026-05-08 11:52 | 52.42532 | 13.47193 | 1284 ft | 108 kts | 283° |
| 2026-05-08 11:53 | 52.42685 | 13.45983 | 1394 ft | 109 kts | 283° |
| 2026-05-08 11:53 | 52.42840 | 13.44742 | 1495 ft | 114 kts | 282° |
| 2026-05-08 11:53 | 52.43003 | 13.43415 | 1510 ft | 124 kts | 283° |
| 2026-05-08 11:53 | 52.43118 | 13.41963 | 1511 ft | 132 kts | 264° |
| 2026-05-08 11:54 | 52.42802 | 13.40534 | 1511 ft | 135 kts | 246° |
| 2026-05-08 11:54 | 52.42448 | 13.39074 | 1516 ft | 139 kts | 248° |
| 2026-05-08 11:54 | 52.42089 | 13.37604 | 1509 ft | 141 kts | 248° |
| 2026-05-08 11:54 | 52.41718 | 13.36091 | 1509 ft | 142 kts | 248° |
| 2026-05-08 11:55 | 52.41351 | 13.34612 | 1512 ft | 142 kts | 248° |
| 2026-05-08 11:55 | 52.40978 | 13.33101 | 1510 ft | 144 kts | 248° |
| 2026-05-08 11:55 | 52.40599 | 13.31567 | 1505 ft | 147 kts | 248° |
| 2026-05-08 11:55 | 52.40219 | 13.30006 | 1505 ft | 147 kts | 248° |
| 2026-05-08 11:56 | 52.39831 | 13.28451 | 1509 ft | 148 kts | 248° |
| 2026-05-08 11:56 | 52.39441 | 13.26877 | 1508 ft | 150 kts | 248° |
| 2026-05-08 11:56 | 52.39053 | 13.25302 | 1505 ft | 148 kts | 248° |
| 2026-05-08 11:56 | 52.38666 | 13.23740 | 1506 ft | 148 kts | 248° |
| 2026-05-08 11:57 | 52.38282 | 13.22189 | 1498 ft | 146 kts | 248° |
| 2026-05-08 11:57 | 52.37901 | 13.20655 | 1500 ft | 146 kts | 248° |
| 2026-05-08 11:57 | 52.37519 | 13.19115 | 1496 ft | 146 kts | 248° |
| 2026-05-08 11:57 | 52.37139 | 13.17578 | 1501 ft | 146 kts | 248° |
| 2026-05-08 11:58 | 52.36755 | 13.16038 | 1499 ft | 146 kts | 248° |
| 2026-05-08 11:58 | 52.36376 | 13.14510 | 1502 ft | 145 kts | 247° |
| 2026-05-08 11:58 | 52.35994 | 13.12977 | 1498 ft | 146 kts | 247° |
| 2026-05-08 11:59 | 52.35235 | 13.09923 | 1500 ft | 144 kts | 248° |
| 2026-05-08 11:59 | 52.34856 | 13.08404 | 1495 ft | 144 kts | 248° |
| 2026-05-08 11:59 | 52.34478 | 13.06888 | 1497 ft | 144 kts | 248° |
| 2026-05-08 11:59 | 52.34100 | 13.05372 | 1497 ft | 144 kts | 248° |
| 2026-05-08 12:00 | 52.33717 | 13.03854 | 1493 ft | 144 kts | 247° |
| 2026-05-08 12:00 | 52.33339 | 13.02335 | 1497 ft | 145 kts | 248° |
| 2026-05-08 12:00 | 52.32961 | 13.00814 | 1496 ft | 145 kts | 248° |
| 2026-05-08 12:00 | 52.32581 | 12.99291 | 1497 ft | 145 kts | 247° |
| 2026-05-08 12:01 | 52.32198 | 12.97767 | 1495 ft | 144 kts | 247° |
| 2026-05-08 12:01 | 52.31822 | 12.96274 | 1494 ft | 144 kts | 248° |
| 2026-05-08 12:01 | 52.31445 | 12.94764 | 1494 ft | 143 kts | 248° |
| 2026-05-08 12:01 | 52.31068 | 12.93264 | 1495 ft | 143 kts | 248° |
| 2026-05-08 12:02 | 52.30691 | 12.91764 | 1493 ft | 143 kts | 248° |
| 2026-05-08 12:02 | 52.30312 | 12.90254 | 1496 ft | 144 kts | 248° |
| 2026-05-08 12:02 | 52.29932 | 12.88742 | 1497 ft | 144 kts | 248° |
| 2026-05-08 12:02 | 52.29550 | 12.87225 | 1499 ft | 144 kts | 248° |
| 2026-05-08 12:03 | 52.29166 | 12.85701 | 1498 ft | 145 kts | 248° |
| 2026-05-08 12:03 | 52.28783 | 12.84177 | 1498 ft | 146 kts | 248° |
| 2026-05-08 12:03 | 52.28396 | 12.82645 | 1500 ft | 145 kts | 248° |
| 2026-05-08 12:03 | 52.28014 | 12.81130 | 1501 ft | 144 kts | 248° |
| 2026-05-08 12:04 | 52.27630 | 12.79608 | 1494 ft | 145 kts | 247° |
| 2026-05-08 12:04 | 52.27246 | 12.78090 | 1499 ft | 144 kts | 248° |
| 2026-05-08 12:04 | 52.26861 | 12.76567 | 1500 ft | 146 kts | 248° |
| 2026-05-08 12:04 | 52.26472 | 12.75026 | 1498 ft | 147 kts | 248° |
| 2026-05-08 12:05 | 52.26083 | 12.73494 | 1498 ft | 145 kts | 248° |
| 2026-05-08 12:05 | 52.25698 | 12.71975 | 1496 ft | 144 kts | 248° |
| 2026-05-08 12:05 | 52.25316 | 12.70465 | 1495 ft | 143 kts | 248° |
| 2026-05-08 12:05 | 52.24936 | 12.68969 | 1495 ft | 143 kts | 248° |
| 2026-05-08 12:06 | 52.24554 | 12.67465 | 1497 ft | 144 kts | 248° |
| 2026-05-08 12:06 | 52.24169 | 12.65942 | 1507 ft | 147 kts | 248° |
| 2026-05-08 12:06 | 52.23766 | 12.64382 | 1510 ft | 152 kts | 248° |
| 2026-05-08 12:06 | 52.23364 | 12.62756 | 1499 ft | 155 kts | 246° |
| 2026-05-08 12:07 | 52.22948 | 12.61156 | 1498 ft | 151 kts | 248° |
| 2026-05-08 12:07 | 52.22551 | 12.59590 | 1498 ft | 148 kts | 248° |
| 2026-05-08 12:07 | 52.22155 | 12.58038 | 1496 ft | 149 kts | 248° |
| 2026-05-08 12:07 | 52.21755 | 12.56475 | 1499 ft | 149 kts | 248° |
| 2026-05-08 12:08 | 52.21359 | 12.54929 | 1500 ft | 151 kts | 248° |
| 2026-05-08 12:08 | 52.20960 | 12.53319 | 1502 ft | 154 kts | 247° |
| 2026-05-08 12:08 | 52.20542 | 12.51715 | 1497 ft | 154 kts | 247° |
| 2026-05-08 12:08 | 52.20132 | 12.50115 | 1492 ft | 152 kts | 247° |
| 2026-05-08 12:09 | 52.19725 | 12.48538 | 1491 ft | 149 kts | 247° |
| 2026-05-08 12:09 | 52.19330 | 12.46990 | 1490 ft | 147 kts | 247° |
| 2026-05-08 12:09 | 52.18940 | 12.45467 | 1490 ft | 146 kts | 248° |
| 2026-05-08 12:09 | 52.18550 | 12.43943 | 1494 ft | 146 kts | 248° |
| 2026-05-08 12:10 | 52.18158 | 12.42421 | 1493 ft | 145 kts | 247° |
| 2026-05-08 12:10 | 52.17768 | 12.40899 | 1493 ft | 145 kts | 247° |
| 2026-05-08 12:10 | 52.17377 | 12.39377 | 1492 ft | 147 kts | 246° |
| 2026-05-08 12:10 | 52.16980 | 12.37832 | 1491 ft | 148 kts | 246° |
| 2026-05-08 12:11 | 52.16584 | 12.36297 | 1494 ft | 146 kts | 246° |
| 2026-05-08 12:11 | 52.16191 | 12.34773 | 1497 ft | 145 kts | 248° |
| 2026-05-08 12:11 | 52.15805 | 12.33263 | 1497 ft | 144 kts | 247° |
| 2026-05-08 12:11 | 52.15416 | 12.31764 | 1495 ft | 144 kts | 248° |
| 2026-05-08 12:12 | 52.15026 | 12.30257 | 1495 ft | 145 kts | 246° |
| 2026-05-08 12:12 | 52.14633 | 12.28733 | 1498 ft | 146 kts | 247° |
| 2026-05-08 12:12 | 52.14236 | 12.27197 | 1500 ft | 148 kts | 246° |
| 2026-05-08 12:12 | 52.13972 | 12.26178 | 1503 ft | 147 kts | 247° |
| 2026-05-08 12:13 | 52.13576 | 12.24645 | 1500 ft | 147 kts | 247° |
| 2026-05-08 12:13 | 52.13183 | 12.23117 | 1497 ft | 145 kts | 246° |
| 2026-05-08 12:13 | 52.12790 | 12.21611 | 1500 ft | 144 kts | 247° |
| 2026-05-08 12:13 | 52.12401 | 12.20114 | 1498 ft | 144 kts | 247° |
| 2026-05-08 12:14 | 52.12014 | 12.18615 | 1502 ft | 144 kts | 246° |
| 2026-05-08 12:14 | 52.11497 | 12.16629 | 1504 ft | 146 kts | 246° |
| 2026-05-08 12:14 | 52.11228 | 12.15595 | 1504 ft | 147 kts | 247° |
| 2026-05-08 12:14 | 52.10832 | 12.14064 | 1502 ft | 147 kts | 246° |
| 2026-05-08 12:15 | 52.10438 | 12.12552 | 1500 ft | 145 kts | 246° |
| 2026-05-08 12:15 | 52.10052 | 12.11068 | 1500 ft | 144 kts | 247° |
| 2026-05-08 12:15 | 52.09660 | 12.09562 | 1497 ft | 145 kts | 246° |
| 2026-05-08 12:15 | 52.09263 | 12.08044 | 1500 ft | 146 kts | 247° |
| 2026-05-08 12:16 | 52.08864 | 12.06517 | 1500 ft | 147 kts | 247° |
| 2026-05-08 12:16 | 52.08463 | 12.04974 | 1505 ft | 148 kts | 247° |
| 2026-05-08 12:16 | 52.08060 | 12.03431 | 1500 ft | 148 kts | 246° |
| 2026-05-08 12:16 | 52.07657 | 12.01892 | 1501 ft | 148 kts | 246° |
| 2026-05-08 12:17 | 52.07256 | 12.00357 | 1502 ft | 147 kts | 247° |
| 2026-05-08 12:17 | 52.06858 | 11.98839 | 1503 ft | 145 kts | 247° |
| 2026-05-08 12:17 | 52.06463 | 11.97329 | 1500 ft | 145 kts | 247° |
| 2026-05-08 12:17 | 52.06066 | 11.95812 | 1500 ft | 146 kts | 247° |
| 2026-05-08 12:18 | 52.05921 | 11.94158 | 1430 ft | 154 kts | 274° |
| 2026-05-08 12:18 | 52.05957 | 11.92379 | 1360 ft | 161 kts | 271° |
| 2026-05-08 12:18 | 52.05970 | 11.90616 | 1288 ft | 156 kts | 271° |
| 2026-05-08 12:18 | 52.05986 | 11.88851 | 1213 ft | 156 kts | 271° |
| 2026-05-08 12:19 | 52.06003 | 11.87092 | 1134 ft | 155 kts | 271° |
| 2026-05-08 12:19 | 52.06022 | 11.85351 | 1053 ft | 153 kts | 271° |
| 2026-05-08 12:19 | 52.06037 | 11.83626 | 1003 ft | 150 kts | 271° |
| 2026-05-08 12:19 | 52.06053 | 11.81959 | 997 ft | 145 kts | 271° |
| 2026-05-08 12:20 | 52.06069 | 11.80338 | 995 ft | 142 kts | 271° |
| 2026-05-08 12:20 | 52.06082 | 11.78734 | 988 ft | 141 kts | 271° |
| 2026-05-08 12:20 | 52.06097 | 11.77156 | 991 ft | 139 kts | 271° |
| 2026-05-08 12:20 | 52.06111 | 11.75593 | 993 ft | 138 kts | 271° |
| 2026-05-08 12:21 | 52.06125 | 11.74039 | 995 ft | 138 kts | 271° |
| 2026-05-08 12:21 | 52.06139 | 11.72469 | 998 ft | 140 kts | 271° |
| 2026-05-08 12:21 | 52.06153 | 11.70885 | 997 ft | 140 kts | 271° |
| 2026-05-08 12:21 | 52.06166 | 11.69307 | 997 ft | 139 kts | 271° |
| 2026-05-08 12:22 | 52.06178 | 11.67732 | 994 ft | 139 kts | 271° |
| 2026-05-08 12:22 | 52.06199 | 11.66165 | 994 ft | 139 kts | 271° |
| 2026-05-08 12:22 | 52.06166 | 11.64674 | 999 ft | 126 kts | 266° |
| 2026-05-08 12:22 | 52.06123 | 11.63275 | 993 ft | 123 kts | 267° |
| 2026-05-08 12:23 | 52.06077 | 11.61900 | 998 ft | 121 kts | 267° |
| 2026-05-08 12:23 | 52.06033 | 11.60534 | 993 ft | 121 kts | 268° |
| 2026-05-08 12:23 | 52.05989 | 11.59189 | 991 ft | 109 kts | 270° |
| 2026-05-08 12:23 | 52.06349 | 11.58383 | 918 ft | 89 kts | 355° |
| 2026-05-08 12:24 | 52.06877 | 11.58800 | 747 ft | 95 kts | 42° |
| 2026-05-08 12:24 | 52.07267 | 11.59616 | 620 ft | 87 kts | 69° |
| 2026-05-08 12:24 | 52.07333 | 11.60599 | 456 ft | 88 kts | 89° |
| 2026-05-08 12:24 | 52.07346 | 11.61578 | 356 ft | 85 kts | 87° |
| 2026-05-08 12:25 | 52.07363 | 11.62519 | 262 ft | 79 kts | 88° |
| 2026-05-08 12:25 | 52.07379 | 11.63169 | 259 ft | 28 kts | 88° |
| 2026-05-08 12:25 | 52.07386 | 11.63410 | 259 ft | 12 kts | 67° |
| 2026-05-08 12:25 | 52.07426 | 11.63435 | 260 ft | 6 kts | 349° |
| 2026-05-08 12:26 | 52.07475 | 11.63415 | 261 ft | 8 kts | 345° |
| 2026-05-08 12:26 | 52.07540 | 11.63388 | 261 ft | 11 kts | 345° |
| 2026-05-08 12:26 | 52.07599 | 11.63328 | 261 ft | 10 kts | 278° |
| 2026-05-08 12:26 | 52.07605 | 11.63205 | 261 ft | 12 kts | 275° |
| 2026-05-08 12:27 | 52.07613 | 11.63055 | 261 ft | 14 kts | 273° |
| 2026-05-08 12:27 | 52.07620 | 11.62887 | 261 ft | 15 kts | 272° |
| 2026-05-08 12:27 | 52.07629 | 11.62737 | 261 ft | 12 kts | 274° |
| 2026-05-08 12:27 | 52.07639 | 11.62635 | 261 ft | 4 kts | 327° |
| 2026-05-08 12:28 | 52.07660 | 11.62636 | 261 ft | 3 kts | 0° |
| 2026-05-08 12:28 | 52.07673 | 11.62637 | 261 ft | 0 kts | 2° |